Time;durP1;ratioP1;P1;durP2;ratioP2;P2;SDS_P1;SDS_P2;PMS_P1;PMS_P2;Temp;Humidity;BMP_temperature;BMP_pressure;BME280_temperature;BME280_humidity;BME280_pressure;Samples;Min_cycle;Max_cycle;Signal;HPM_P1;HPM_P2
2023/03/25 05:00:43;;;;;;;2.90;0.70;;;8.80;99.90;;;;;;5705335;23;23647;-67
2023/03/25 05:03:11;;;;;;;1.02;1.02;;;8.90;99.90;;;;;;4911318;29;20210;-68
2023/03/25 05:05:38;;;;;;;1.02;1.02;;;8.90;99.90;;;;;;4911909;29;20266;-68
2023/03/25 05:08:05;;;;;;;1.65;0.90;;;8.90;99.90;;;;;;4913731;29;20227;-67
2023/03/25 05:10:33;;;;;;;0.90;0.90;;;8.90;99.90;;;;;;4920595;29;20740;-68
2023/03/25 05:13:00;;;;;;;0.85;0.85;;;8.90;99.90;;;;;;4916048;29;20264;-68
2023/03/25 05:15:29;;;;;;;0.88;0.88;;;8.90;99.90;;;;;;4916513;23;20231;-69
2023/03/25 05:17:57;;;;;;;1.05;1.05;;;8.90;99.90;;;;;;4874360;29;20291;-70
2023/03/25 05:20:24;;;;;;;0.73;0.73;;;8.90;99.90;;;;;;4872692;29;20227;-70
2023/03/25 05:22:52;;;;;;;2.25;0.95;;;9.00;99.90;;;;;;4876492;29;20204;-70
2023/03/25 05:25:21;;;;;;;8.73;1.80;;;8.90;99.90;;;;;;4871819;29;20255;-70
2023/03/25 05:27:48;;;;;;;1.17;1.17;;;8.90;99.90;;;;;;4876589;29;20236;-70
2023/03/25 05:30:15;;;;;;;0.50;0.50;;;9.00;99.90;;;;;;4873815;29;20219;-71
2023/03/25 05:32:44;;;;;;;1.17;1.15;;;9.00;99.90;;;;;;4875387;29;20212;-70
2023/03/25 05:35:12;;;;;;;4.65;1.35;;;9.00;99.90;;;;;;4868584;29;20244;-71
2023/03/25 05:37:39;;;;;;;0.88;0.88;;;9.00;99.90;;;;;;4872529;29;20208;-70
2023/03/25 05:40:09;;;;;;;0.68;0.68;;;9.00;99.90;;;;;;4872744;29;20239;-70
2023/03/25 05:42:36;;;;;;;1.40;1.23;;;8.90;99.90;;;;;;4878601;29;20214;-71
2023/03/25 05:45:03;;;;;;;1.50;0.93;;;8.90;99.90;;;;;;4874791;29;20327;-72
2023/03/25 05:47:30;;;;;;;0.98;0.98;;;9.00;99.90;;;;;;4876804;29;20287;-72
2023/03/25 05:49:57;;;;;;;2.45;2.30;;;8.90;99.90;;;;;;4874907;29;20204;-71
2023/03/25 05:52:26;;;;;;;0.68;0.68;;;8.90;99.90;;;;;;4876463;29;20647;-71
2023/03/25 05:54:54;;;;;;;1.17;1.17;;;8.90;99.90;;;;;;4873423;29;20240;-71
2023/03/25 05:57:21;;;;;;;1.30;1.00;;;8.90;99.90;;;;;;4877680;29;20213;-71
2023/03/25 05:59:48;;;;;;;1.20;1.20;;;8.90;99.90;;;;;;4874608;29;20216;-71
2023/03/25 06:02:16;;;;;;;1.45;1.42;;;8.90;99.90;;;;;;4877197;29;20215;-69
2023/03/25 06:04:43;;;;;;;1.55;1.45;;;8.90;99.90;;;;;;4873883;29;20239;-69
2023/03/25 06:07:12;;;;;;;1.98;1.88;;;8.90;99.90;;;;;;4874090;29;20279;-69
2023/03/25 06:09:44;;;;;;;1.77;1.65;;;8.90;99.90;;;;;;4874501;29;20673;-69
2023/03/25 06:12:12;;;;;;;0.88;0.88;;;8.90;99.90;;;;;;4871287;29;20211;-70
2023/03/25 06:14:41;;;;;;;0.43;0.43;;;8.90;99.90;;;;;;4874623;29;20211;-69
2023/03/25 06:17:09;;;;;;;1.65;1.55;;;8.90;99.90;;;;;;4875237;29;20204;-68
2023/03/25 06:19:38;;;;;;;1.40;1.40;;;8.90;99.90;;;;;;4871840;29;20239;-68
2023/03/25 06:22:05;;;;;;;3.17;1.38;;;8.90;99.90;;;;;;4873052;29;20842;-69
2023/03/25 06:24:32;;;;;;;1.83;1.73;;;8.90;99.90;;;;;;4873973;29;20271;-69
2023/03/25 06:27:00;;;;;;;0.70;0.70;;;8.90;99.90;;;;;;4871792;29;20279;-68
2023/03/25 06:29:26;;;;;;;1.40;1.25;;;8.90;99.90;;;;;;4876857;29;20204;-69
2023/03/25 06:31:53;;;;;;;0.43;0.43;;;8.90;99.90;;;;;;4874671;29;20268;-68
2023/03/25 06:34:20;;;;;;;1.05;1.05;;;8.80;99.90;;;;;;4866292;29;20209;-69
2023/03/25 06:36:48;;;;;;;6.35;1.25;;;8.80;99.90;;;;;;4873954;29;20235;-70
2023/03/25 06:39:15;;;;;;;1.27;1.00;;;8.80;99.90;;;;;;4875803;29;20255;-69
2023/03/25 06:41:42;;;;;;;1.27;1.10;;;8.90;99.90;;;;;;4876602;29;20212;-70
2023/03/25 06:44:10;;;;;;;1.05;0.60;;;8.80;99.90;;;;;;4870065;29;20609;-69
2023/03/25 06:46:37;;;;;;;0.70;0.60;;;8.90;99.90;;;;;;4868373;29;20230;-70
2023/03/25 06:49:04;;;;;;;1.67;0.63;;;8.90;99.90;;;;;;4873326;29;20215;-69
2023/03/25 06:51:31;;;;;;;1.08;1.08;;;8.90;99.90;;;;;;4871024;29;20259;-70
2023/03/25 06:53:57;;;;;;;1.13;1.00;;;9.00;99.90;;;;;;4867304;29;20232;-69
2023/03/25 06:56:24;;;;;;;1.52;1.38;;;9.00;99.90;;;;;;4872414;29;20232;-69
2023/03/25 06:58:51;;;;;;;0.85;0.70;;;9.00;99.90;;;;;;4875294;29;20291;-70
2023/03/25 07:01:19;;;;;;;5.15;4.75;;;9.10;99.90;;;;;;4870696;29;20576;-71
2023/03/25 07:03:46;;;;;;;1.92;1.83;;;9.10;99.90;;;;;;4873681;29;20215;-70
2023/03/25 07:06:16;;;;;;;5.90;2.25;;;9.10;99.90;;;;;;4871651;29;20656;-69
2023/03/25 07:08:43;;;;;;;9.85;3.58;;;9.20;99.90;;;;;;4873372;29;20239;-70
2023/03/25 07:11:12;;;;;;;2.75;2.55;;;9.30;99.90;;;;;;4874521;29;20204;-70
2023/03/25 07:13:38;;;;;;;3.17;1.98;;;9.30;99.90;;;;;;4874040;29;20204;-68
2023/03/25 07:16:06;;;;;;;1.92;1.70;;;9.30;99.90;;;;;;4872189;29;20259;-70
2023/03/25 07:18:34;;;;;;;3.58;2.33;;;9.30;99.90;;;;;;4870406;29;20218;-69
2023/03/25 07:21:01;;;;;;;6.75;1.10;;;9.40;99.90;;;;;;4872388;29;20226;-70
2023/03/25 07:23:28;;;;;;;2.60;1.48;;;9.50;99.90;;;;;;4871623;29;20591;-70
2023/03/25 07:25:55;;;;;;;0.80;0.80;;;9.50;99.90;;;;;;4874095;29;20731;-70
2023/03/25 07:28:22;;;;;;;2.05;1.95;;;9.60;99.90;;;;;;4873562;29;20238;-68
2023/03/25 07:30:49;;;;;;;1.05;1.05;;;9.60;99.90;;;;;;4874938;29;20216;-71
2023/03/25 07:33:16;;;;;;;0.40;0.40;;;9.60;99.90;;;;;;4874799;29;20211;-70
2023/03/25 07:35:44;;;;;;;0.93;0.70;;;9.60;99.90;;;;;;4873417;29;20243;-71
2023/03/25 07:38:11;;;;;;;0.90;0.90;;;9.70;99.90;;;;;;4874645;29;20634;-70
2023/03/25 07:40:38;;;;;;;1.90;1.50;;;9.80;99.90;;;;;;4874258;29;20545;-70
2023/03/25 07:43:05;;;;;;;1.02;1.02;;;9.90;99.90;;;;;;4870238;29;20231;-68
2023/03/25 07:45:31;;;;;;;2.85;0.65;;;10.00;99.90;;;;;;4875669;29;20314;-69
2023/03/25 07:48:00;;;;;;;0.95;0.95;;;10.00;99.90;;;;;;4874764;29;20582;-68
2023/03/25 07:50:27;;;;;;;1.42;1.33;;;10.10;99.90;;;;;;4879332;29;20216;-69
2023/03/25 07:52:55;;;;;;;1.08;1.00;;;10.20;99.90;;;;;;4878484;29;20672;-69
2023/03/25 07:55:22;;;;;;;0.85;0.85;;;10.20;99.90;;;;;;4876311;29;20289;-69
2023/03/25 07:57:49;;;;;;;2.75;1.38;;;10.20;99.90;;;;;;4875568;29;20212;-69
2023/03/25 08:00:16;;;;;;;1.65;1.00;;;10.10;99.90;;;;;;4878784;29;20763;-69
2023/03/25 08:02:42;;;;;;;1.30;0.60;;;10.20;99.90;;;;;;4877570;29;20212;-69
2023/03/25 08:05:11;;;;;;;0.60;0.60;;;10.20;99.90;;;;;;4879156;29;20747;-69
2023/03/25 08:07:38;;;;;;;1.75;1.65;;;10.30;99.90;;;;;;4877952;29;20255;-68
2023/03/25 08:10:08;;;;;;;1.27;1.27;;;10.40;99.90;;;;;;4879213;29;20216;-70
2023/03/25 08:12:36;;;;;;;0.50;0.50;;;10.40;99.90;;;;;;4878720;29;20268;-70
2023/03/25 08:15:03;;;;;;;10.18;1.63;;;10.60;99.90;;;;;;4877212;29;20247;-69
2023/03/25 08:17:30;;;;;;;1.25;1.25;;;10.60;99.90;;;;;;4870903;29;20255;-69
2023/03/25 08:19:57;;;;;;;2.58;0.98;;;10.60;99.90;;;;;;4874970;29;20216;-70
2023/03/25 08:22:24;;;;;;;1.38;1.38;;;10.60;99.90;;;;;;4878665;29;20236;-69
2023/03/25 08:24:51;;;;;;;5.75;2.88;;;10.70;99.90;;;;;;4874655;29;20319;-69
2023/03/25 08:27:19;;;;;;;1.90;0.95;;;10.70;99.90;;;;;;4876859;29;20212;-70
2023/03/25 08:29:53;;;;;;;3.92;1.60;;;10.80;99.90;;;;;;4877197;29;20215;-69
2023/03/25 08:32:20;;;;;;;1.17;1.17;;;10.90;99.90;;;;;;4877017;29;20215;-70
2023/03/25 08:34:47;;;;;;;0.73;0.73;;;11.00;99.90;;;;;;4875435;29;20266;-69
2023/03/25 08:37:14;;;;;;;1.15;1.15;;;11.00;99.90;;;;;;4878752;29;20238;-69
2023/03/25 08:39:41;;;;;;;1.92;1.10;;;12.60;99.90;;;;;;4876555;29;20208;-70
2023/03/25 08:42:08;;;;;;;0.50;0.50;;;11.10;99.90;;;;;;4877723;29;20319;-69
2023/03/25 08:44:36;;;;;;;0.95;0.95;;;11.10;99.90;;;;;;4876364;29;20275;-70
2023/03/25 08:47:03;;;;;;;0.52;0.52;;;11.00;99.90;;;;;;4878031;29;20684;-70
2023/03/25 08:49:30;;;;;;;3.00;1.10;;;11.00;99.90;;;;;;4875906;29;20705;-70
2023/03/25 08:51:59;;;;;;;0.60;0.60;;;10.90;99.90;;;;;;4874323;29;20223;-69
2023/03/25 08:54:26;;;;;;;0.88;0.82;;;10.90;99.90;;;;;;4874476;29;20211;-68
2023/03/25 08:56:53;;;;;;;0.88;0.88;;;11.00;99.90;;;;;;4877963;29;20215;-68
2023/03/25 08:59:20;;;;;;;0.50;0.50;;;11.10;99.90;;;;;;4876890;29;20204;-68
2023/03/25 09:01:48;;;;;;;2.05;0.95;;;11.30;99.90;;;;;;4877482;29;20891;-70
2023/03/25 09:04:16;;;;;;;0.93;0.90;;;11.40;99.90;;;;;;4871294;29;20216;-67
2023/03/25 09:06:43;;;;;;;1.10;1.10;;;11.40;99.90;;;;;;4877290;29;20625;-68
2023/03/25 09:09:10;;;;;;;2.57;1.40;;;11.50;99.90;;;;;;4876315;29;20496;-69
2023/03/25 09:11:37;;;;;;;0.67;0.67;;;11.60;99.90;;;;;;4869357;29;20525;-68
2023/03/25 09:14:04;;;;;;;1.60;1.53;;;11.70;99.90;;;;;;4875499;29;20472;-69
2023/03/25 09:16:31;;;;;;;3.50;0.87;;;11.70;99.90;;;;;;4869002;29;20516;-70
2023/03/25 09:18:59;;;;;;;1.27;1.23;;;11.70;99.90;;;;;;4876451;29;20472;-68
2023/03/25 09:21:26;;;;;;;2.67;1.10;;;11.70;99.90;;;;;;4875898;29;20849;-68
2023/03/25 09:23:53;;;;;;;0.70;0.70;;;11.80;99.90;;;;;;4873422;29;20480;-69
2023/03/25 09:26:20;;;;;;;0.60;0.60;;;11.90;99.90;;;;;;4872441;29;20492;-68
2023/03/25 09:28:46;;;;;;;7.00;1.03;;;12.00;99.90;;;;;;4870506;29;20520;-69
2023/03/25 09:31:13;;;;;;;1.27;1.27;;;12.00;99.90;;;;;;4874955;29;20569;-69
2023/03/25 09:33:40;;;;;;;1.20;0.90;;;12.10;99.90;;;;;;4874850;29;20495;-69
2023/03/25 09:36:08;;;;;;;2.00;0.80;;;12.00;99.90;;;;;;4874722;29;20491;-69
2023/03/25 09:38:35;;;;;;;6.57;1.60;;;11.90;99.90;;;;;;4876302;29;20487;-67
2023/03/25 09:41:13;;;;;;;1.20;1.20;;;11.90;99.90;;;;;;4875606;29;20989;-68
2023/03/25 09:43:56;;;;;;;1.07;0.97;;;11.90;99.90;;;;;;4867792;29;20844;-68
2023/03/25 09:46:23;;;;;;;1.10;1.07;;;11.90;99.90;;;;;;4872173;29;20938;-68
2023/03/25 09:48:51;;;;;;;2.80;0.80;;;11.80;99.90;;;;;;4876791;29;20491;-68
2023/03/25 09:51:26;;;;;;;0.20;0.20;;;11.60;99.90;;;;;;4873782;29;20831;-68
2023/03/25 09:53:58;;;;;;;0.10;0.10;;;10.90;99.90;;;;;;4876813;29;20468;-67
2023/03/25 09:56:28;;;;;;;0.32;0.30;;;10.00;99.90;;;;;;4873582;29;20578;-68
2023/03/25 09:59:00;;;;;;;0.10;0.10;;;9.50;99.90;;;;;;4875996;29;20255;-68
2023/03/25 10:01:37;;;;;;;0.45;0.45;;;9.20;99.90;;;;;;4874894;29;20717;-67
2023/03/25 10:04:32;;;;;;;1.77;0.75;;;9.00;99.90;;;;;;4869073;29;20299;-68
2023/03/25 10:07:12;;;;;;;0.20;0.20;;;8.90;99.90;;;;;;4870352;29;20208;-68
2023/03/25 10:09:47;;;;;;;0.40;0.40;;;8.80;99.90;;;;;;4871859;29;20238;-68
2023/03/25 10:12:31;;;;;;;0.82;0.43;;;8.80;99.90;;;;;;4873094;29;20208;-68
2023/03/25 10:15:05;;;;;;;1.05;1.05;;;8.80;99.90;;;;;;4874470;29;20247;-68
2023/03/25 10:17:39;;;;;;;0.47;0.47;;;8.90;99.90;;;;;;4873832;29;20212;-68
2023/03/25 10:20:16;;;;;;;2.53;0.98;;;8.90;99.90;;;;;;4874748;29;20664;-68
2023/03/25 10:22:56;;;;;;;4.80;1.73;;;8.80;99.90;;;;;;4872679;29;20212;-68
2023/03/25 10:25:27;;;;;;;1.75;0.93;;;8.80;99.90;;;;;;4872019;29;20246;-67
2023/03/25 10:27:56;;;;;;;1.23;0.45;;;8.80;99.90;;;;;;4870605;29;20224;-68
2023/03/25 10:30:25;;;;;;;1.77;0.60;;;8.80;99.90;;;;;;4873188;29;20224;-68
2023/03/25 10:32:55;;;;;;;1.00;1.00;;;8.90;99.90;;;;;;4873972;29;20243;-69
2023/03/25 10:35:25;;;;;;;0.43;0.43;;;8.90;99.90;;;;;;4872766;29;20731;-69
2023/03/25 10:37:57;;;;;;;0.30;0.30;;;9.00;99.90;;;;;;4872986;29;20646;-68
2023/03/25 10:40:28;;;;;;;0.57;0.57;;;9.10;99.90;;;;;;4865963;29;20246;-68
2023/03/25 10:43:17;;;;;;;0.30;0.30;;;9.20;99.90;;;;;;4872719;29;20247;-68
2023/03/25 10:45:46;;;;;;;0.68;0.60;;;9.40;99.90;;;;;;4869058;29;20712;-68
2023/03/25 10:48:20;;;;;;;0.40;0.40;;;9.50;99.90;;;;;;4872592;29;20228;-68
2023/03/25 10:50:48;;;;;;;0.22;0.22;;;9.60;99.90;;;;;;4861985;29;20227;-68
2023/03/25 10:53:23;;;;;;;1.27;1.17;;;9.90;99.90;;;;;;4870271;29;20214;-68
2023/03/25 10:55:57;;;;;;;0.40;0.32;;;10.00;99.90;;;;;;4875256;29;20231;-68
2023/03/25 10:58:24;;;;;;;0.95;0.95;;;10.10;99.90;;;;;;4874901;29;20215;-68
2023/03/25 11:00:51;;;;;;;0.75;0.75;;;10.20;99.90;;;;;;4874127;29;20235;-69
2023/03/25 11:03:22;;;;;;;0.28;0.28;;;10.30;99.90;;;;;;4872709;29;20841;-68
2023/03/25 11:05:49;;;;;;;0.40;0.40;;;10.40;99.90;;;;;;4868689;29;20239;-69
2023/03/25 11:08:20;;;;;;;0.52;0.45;;;10.50;99.90;;;;;;4869795;29;20223;-72
2023/03/25 11:10:50;;;;;;;2.75;0.60;;;10.60;99.90;;;;;;4873092;29;20230;-70
2023/03/25 11:13:20;;;;;;;2.17;0.40;;;10.60;99.90;;;;;;4872921;29;20212;-69
2023/03/25 11:15:48;;;;;;;0.65;0.65;;;10.70;99.90;;;;;;4875189;29;20323;-69
2023/03/25 11:18:20;;;;;;;1.40;0.40;;;10.80;99.90;;;;;;4875120;29;20212;-69
2023/03/25 11:20:50;;;;;;;0.57;0.57;;;10.90;99.90;;;;;;4868614;29;20296;-68
2023/03/25 11:23:24;;;;;;;0.30;0.30;;;11.10;99.90;;;;;;4875993;29;20740;-67
2023/03/25 11:25:52;;;;;;;1.13;0.47;;;11.10;99.90;;;;;;4878806;29;20594;-68
2023/03/25 11:28:24;;;;;;;2.78;0.60;;;11.20;99.90;;;;;;4876787;29;20571;-68
2023/03/25 11:31:15;;;;;;;1.33;0.50;;;11.30;99.90;;;;;;4879172;29;20307;-68
2023/03/25 11:33:43;;;;;;;0.30;0.30;;;11.30;99.90;;;;;;4874666;29;20566;-69
2023/03/25 11:36:28;;;;;;;1.23;1.13;;;11.30;99.90;;;;;;4884333;29;20488;-67
2023/03/25 11:39:03;;;;;;;0.70;0.70;;;11.20;99.90;;;;;;4879691;29;20472;-67
2023/03/25 11:41:32;;;;;;;0.30;0.30;;;11.10;99.90;;;;;;4884209;29;20298;-67
2023/03/25 11:43:59;;;;;;;2.67;0.40;;;11.00;99.90;;;;;;4879647;29;20207;-68
2023/03/25 11:46:26;;;;;;;0.28;0.28;;;10.90;99.90;;;;;;4882228;29;20227;-69
2023/03/25 11:48:53;;;;;;;0.55;0.55;;;10.80;99.90;;;;;;4879977;29;20230;-68
2023/03/25 11:51:22;;;;;;;2.75;0.40;;;10.80;99.90;;;;;;4875348;29;20216;-68
2023/03/25 11:53:54;;;;;;;7.90;1.40;;;10.60;99.90;;;;;;4870283;29;20219;-68
2023/03/25 11:56:26;;;;;;;0.52;0.52;;;10.50;99.90;;;;;;4877763;29;20235;-69
2023/03/25 11:58:59;;;;;;;0.63;0.63;;;10.40;99.90;;;;;;4876515;29;20226;-68
2023/03/25 12:01:29;;;;;;;2.20;0.77;;;10.30;99.90;;;;;;4878831;29;20222;-69
2023/03/25 12:04:13;;;;;;;0.30;0.30;;;10.10;99.90;;;;;;4874885;29;20215;-68
2023/03/25 12:06:57;;;;;;;6.43;0.50;;;9.80;99.90;;;;;;4869975;29;20232;-67
2023/03/25 12:09:24;;;;;;;0.65;0.65;;;9.70;99.90;;;;;;4876441;29;20244;-68
2023/03/25 12:12:03;;;;;;;0.60;0.60;;;9.70;99.90;;;;;;4869220;29;20302;-67
2023/03/25 12:14:39;;;;;;;0.90;0.65;;;9.60;99.90;;;;;;4878705;29;20207;-69
2023/03/25 12:17:15;;;;;;;0.95;0.60;;;9.50;99.90;;;;;;4877806;29;20535;-68
2023/03/25 12:19:53;;;;;;;1.02;1.02;;;9.40;99.90;;;;;;4869579;29;20220;-69
2023/03/25 12:22:31;;;;;;;0.90;0.85;;;9.30;99.90;;;;;;4875926;29;20297;-69
2023/03/25 12:25:16;;;;;;;0.43;0.43;;;9.10;99.90;;;;;;4872585;29;20235;-68
2023/03/25 12:27:56;;;;;;;0.35;0.20;;;9.10;99.90;;;;;;4877454;29;20242;-68
2023/03/25 12:30:42;;;;;;;0.30;0.30;;;9.20;99.90;;;;;;4868467;29;20228;-69
2023/03/25 12:33:25;;;;;;;0.20;0.20;;;9.50;99.90;;;;;;4877604;29;20208;-68
2023/03/25 12:36:03;;;;;;;0.60;0.60;;;9.60;99.90;;;;;;4876201;29;20231;-68
2023/03/25 12:38:44;;;;;;;0.20;0.20;;;9.70;99.90;;;;;;4876291;29;20649;-68
2023/03/25 12:41:18;;;;;;;0.65;0.65;;;9.80;99.90;;;;;;4877738;29;20218;-68
2023/03/25 12:43:58;;;;;;;0.75;0.50;;;9.80;99.90;;;;;;4875661;29;20208;-67
2023/03/25 12:46:38;;;;;;;0.20;0.20;;;10.00;99.90;;;;;;4877473;29;20344;-67
2023/03/25 12:49:20;;;;;;;0.20;0.20;;;10.10;99.90;;;;;;4872804;29;20231;-68
2023/03/25 12:51:56;;;;;;;0.20;0.20;;;10.20;99.90;;;;;;4871996;29;20204;-67
2023/03/25 12:54:40;;;;;;;0.60;0.60;;;10.30;99.90;;;;;;4875454;29;20218;-66
2023/03/25 12:57:20;;;;;;;1.48;0.93;;;10.40;99.90;;;;;;4874021;29;20208;-67
2023/03/25 13:00:22;;;;;;;0.95;0.55;;;10.60;99.90;;;;;;4869034;29;20214;-66
2023/03/25 13:03:21;;;;;;;0.65;0.65;;;10.70;99.90;;;;;;4872382;29;20250;-69
2023/03/25 13:05:54;;;;;;;1.20;0.75;;;11.00;99.90;;;;;;4870577;29;20235;-67
2023/03/25 13:08:24;;;;;;;2.38;0.82;;;11.20;99.90;;;;;;4877594;29;20295;-69
2023/03/25 13:10:57;;;;;;;0.65;0.65;;;11.30;99.90;;;;;;4872395;29;20605;-68
2023/03/25 13:13:26;;;;;;;2.85;1.48;;;11.30;99.90;;;;;;4876445;29;20276;-68
2023/03/25 13:16:00;;;;;;;8.13;0.70;;;11.30;99.90;;;;;;4874359;29;20602;-68
2023/03/25 13:18:31;;;;;;;1.38;0.73;;;11.10;99.90;;;;;;4877668;29;20852;-67
2023/03/25 13:21:05;;;;;;;0.68;0.68;;;10.90;99.90;;;;;;4873927;29;20747;-69
2023/03/25 13:23:35;;;;;;;0.68;0.63;;;10.80;99.90;;;;;;4874838;29;20303;-68
2023/03/25 13:26:07;;;;;;;0.95;0.70;;;10.70;99.90;;;;;;4876503;29;20681;-69
2023/03/25 13:28:40;;;;;;;0.68;0.68;;;10.60;99.90;;;;;;4867508;29;20692;-68
2023/03/25 13:31:13;;;;;;;0.68;0.63;;;10.50;99.90;;;;;;4876064;29;20729;-68
2023/03/25 13:33:45;;;;;;;0.50;0.50;;;10.40;99.90;;;;;;4875173;29;20223;-68
2023/03/25 13:36:19;;;;;;;1.77;0.88;;;10.20;99.90;;;;;;4876090;29;20232;-67
2023/03/25 13:38:50;;;;;;;0.80;0.80;;;10.10;99.90;;;;;;4870411;29;20295;-68
2023/03/25 13:41:22;;;;;;;1.35;1.23;;;10.20;99.90;;;;;;4875258;29;20299;-68
2023/03/25 13:43:56;;;;;;;0.55;0.55;;;10.20;99.90;;;;;;4875172;29;20204;-69
2023/03/25 13:46:29;;;;;;;1.85;1.55;;;10.30;99.90;;;;;;4875816;29;20234;-68
2023/03/25 13:49:01;;;;;;;0.32;0.32;;;10.30;99.90;;;;;;4872060;29;20304;-68
2023/03/25 13:51:27;;;;;;;0.40;0.40;;;10.20;99.90;;;;;;4874386;29;20681;-69
2023/03/25 13:53:58;;;;;;;0.68;0.68;;;10.20;99.90;;;;;;4875722;29;20208;-69
2023/03/25 13:56:56;;;;;;;0.75;0.75;;;10.20;99.90;;;;;;4876936;29;20228;-68
2023/03/25 13:59:43;;;;;;;0.50;0.50;;;10.20;99.90;;;;;;4872771;29;20208;-68
2023/03/25 14:02:35;;;;;;;0.63;0.20;;;10.20;99.90;;;;;;4873055;29;20208;-68
2023/03/25 14:05:30;;;;;;;0.73;0.73;;;10.20;99.90;;;;;;4875915;29;20748;-69
2023/03/25 14:08:18;;;;;;;0.77;0.77;;;10.30;99.90;;;;;;4877840;29;20206;-69
2023/03/25 14:10:53;;;;;;;0.30;0.30;;;10.20;99.90;;;;;;4877024;29;20232;-69
2023/03/25 14:13:24;;;;;;;0.63;0.52;;;10.20;99.90;;;;;;4876039;29;20658;-69
2023/03/25 14:15:57;;;;;;;0.70;0.70;;;10.20;99.90;;;;;;4873936;29;20243;-69
2023/03/25 14:18:27;;;;;;;0.93;0.93;;;10.20;99.90;;;;;;4877014;29;20665;-69
2023/03/25 14:20:54;;;;;;;1.25;1.25;;;10.10;99.90;;;;;;4877480;29;20648;-69
2023/03/25 14:23:22;;;;;;;0.70;0.70;;;10.10;99.90;;;;;;4876705;29;20223;-69
2023/03/25 14:25:53;;;;;;;0.50;0.50;;;10.10;99.90;;;;;;4875338;29;20738;-69
2023/03/25 14:28:31;;;;;;;0.90;0.55;;;10.10;99.90;;;;;;4872802;29;21837;-69
2023/03/25 14:31:16;;;;;;;0.47;0.47;;;10.10;99.90;;;;;;4874467;29;20275;-69
2023/03/25 14:34:36;;;;;;;5.68;0.90;;;10.00;99.90;;;;;;4867709;29;20703;-68
2023/03/25 14:37:29;;;;;;;1.85;1.30;;;10.00;99.90;;;;;;4872988;29;20215;-68
2023/03/25 14:40:06;;;;;;;0.65;0.65;;;10.00;99.90;;;;;;4876890;29;20638;-68
2023/03/25 14:42:58;;;;;;;0.52;0.52;;;10.00;99.90;;;;;;4875840;29;20307;-68
2023/03/25 14:45:50;;;;;;;0.82;0.82;;;10.00;99.90;;;;;;4873447;29;20235;-69
2023/03/25 14:48:29;;;;;;;0.20;0.20;;;10.10;99.90;;;;;;4875933;29;20243;-69
2023/03/25 14:51:20;;;;;;;0.40;0.40;;;10.10;99.90;;;;;;4876963;29;20235;-69
2023/03/25 14:53:55;;;;;;;0.75;0.50;;;10.10;99.90;;;;;;4875795;29;20311;-68
2023/03/25 14:56:25;;;;;;;0.73;0.73;;;10.20;99.90;;;;;;4875723;29;20731;-68
2023/03/25 14:58:55;;;;;;;0.35;0.35;;;10.10;99.90;;;;;;4874069;29;20250;-68
2023/03/25 15:01:31;;;;;;;0.95;0.65;;;10.20;99.90;;;;;;4876535;29;20200;-68
2023/03/25 15:04:12;;;;;;;0.77;0.40;;;10.20;99.90;;;;;;4874151;29;20573;-68
2023/03/25 15:06:44;;;;;;;0.43;0.43;;;10.30;99.90;;;;;;4875914;29;20232;-69
2023/03/25 15:09:16;;;;;;;3.45;3.15;;;10.40;99.90;;;;;;4875485;29;20208;-68
2023/03/25 15:11:45;;;;;;;0.40;0.40;;;10.50;99.90;;;;;;4867777;29;20550;-69
2023/03/25 15:14:16;;;;;;;0.30;0.30;;;10.60;99.90;;;;;;4874146;29;20215;-68
2023/03/25 15:16:58;;;;;;;0.80;0.80;;;10.70;99.90;;;;;;4869220;29;20239;-68
2023/03/25 15:19:24;;;;;;;0.50;0.50;;;10.80;99.90;;;;;;4869088;29;20212;-67
2023/03/25 15:22:18;;;;;;;0.63;0.52;;;10.80;99.90;;;;;;4876764;29;20204;-69
2023/03/25 15:25:00;;;;;;;0.85;0.47;;;10.90;99.90;;;;;;4871457;29;20615;-69
2023/03/25 15:27:40;;;;;;;2.05;0.73;;;11.00;99.90;;;;;;4871213;29;20207;-68
2023/03/25 15:30:28;;;;;;;0.55;0.55;;;11.00;99.90;;;;;;4872027;29;20282;-69
2023/03/25 15:33:08;;;;;;;1.77;0.85;;;11.10;99.90;;;;;;4866530;29;20209;-69
2023/03/25 15:35:52;;;;;;;0.40;0.40;;;11.10;99.90;;;;;;4875238;29;20238;-68
2023/03/25 15:38:47;;;;;;;0.68;0.68;;;11.00;99.90;;;;;;4871101;29;20587;-68
2023/03/25 15:41:43;;;;;;;1.20;1.02;;;11.00;99.90;;;;;;4872572;29;20196;-69
2023/03/25 15:44:52;;;;;;;0.55;0.55;;;10.90;99.90;;;;;;4875101;29;20689;-68
2023/03/25 15:47:56;;;;;;;0.60;0.60;;;10.80;99.90;;;;;;4871152;29;20231;-69
2023/03/25 15:50:35;;;;;;;0.50;0.50;;;10.70;99.90;;;;;;4869731;29;20227;-69
2023/03/25 15:53:26;;;;;;;4.88;0.80;;;10.60;99.90;;;;;;4868838;29;20304;-68
2023/03/25 15:55:57;;;;;;;0.20;0.20;;;10.60;99.90;;;;;;4867237;29;20713;-69
2023/03/25 15:58:30;;;;;;;1.42;0.85;;;10.50;99.90;;;;;;4871758;29;20216;-69
2023/03/25 16:01:03;;;;;;;0.40;0.30;;;10.40;99.90;;;;;;4872082;29;20734;-69
2023/03/25 16:03:33;;;;;;;2.40;1.00;;;10.40;99.90;;;;;;4869476;29;20218;-68
2023/03/25 16:06:04;;;;;;;0.25;0.25;;;10.30;99.90;;;;;;4874745;29;20224;-69
2023/03/25 16:08:35;;;;;;;0.30;0.30;;;10.30;99.90;;;;;;4877833;29;20574;-68
2023/03/25 16:11:15;;;;;;;0.28;0.28;;;10.20;99.90;;;;;;4872358;29;20284;-69
2023/03/25 16:13:43;;;;;;;0.75;0.75;;;10.20;99.90;;;;;;4878940;29;20574;-68
2023/03/25 16:16:12;;;;;;;1.05;0.90;;;10.10;99.90;;;;;;4875872;29;20607;-69
2023/03/25 16:18:40;;;;;;;3.30;1.40;;;10.10;99.90;;;;;;4878937;29;20212;-68
2023/03/25 16:21:08;;;;;;;0.90;0.90;;;10.00;99.90;;;;;;4876824;29;20714;-68
2023/03/25 16:23:36;;;;;;;1.15;1.15;;;9.90;99.90;;;;;;4876754;29;20591;-69
2023/03/25 16:26:04;;;;;;;0.35;0.35;;;9.80;99.90;;;;;;4878669;29;20275;-68
2023/03/25 16:28:33;;;;;;;0.20;0.20;;;9.60;99.90;;;;;;4875519;29;20219;-69
2023/03/25 16:31:02;;;;;;;1.15;0.63;;;9.40;99.90;;;;;;4879102;29;20224;-69
2023/03/25 16:33:30;;;;;;;1.05;1.05;;;9.20;99.90;;;;;;4877847;29;20201;-69
2023/03/25 16:35:59;;;;;;;0.52;0.52;;;9.10;99.90;;;;;;4876954;29;20232;-70
2023/03/25 16:38:26;;;;;;;1.00;0.40;;;8.90;99.90;;;;;;4878419;29;20258;-69
2023/03/25 16:41:01;;;;;;;0.75;0.75;;;8.50;99.90;;;;;;4873288;29;20307;-69
2023/03/25 16:43:29;;;;;;;2.55;1.10;;;8.30;99.90;;;;;;4875677;29;20225;-68
2023/03/25 16:45:58;;;;;;;2.55;1.30;;;8.30;99.90;;;;;;4878878;29;20242;-69
2023/03/25 16:48:29;;;;;;;0.50;0.45;;;8.30;99.90;;;;;;4876914;29;20211;-69
2023/03/25 16:50:58;;;;;;;0.32;0.32;;;8.30;99.90;;;;;;4875324;29;20304;-69
2023/03/25 16:53:27;;;;;;;0.40;0.40;;;8.20;99.90;;;;;;4875440;29;20574;-69
2023/03/25 16:55:58;;;;;;;0.88;0.88;;;8.20;99.90;;;;;;4873360;29;20228;-69
2023/03/25 16:58:27;;;;;;;1.20;1.10;;;8.20;99.90;;;;;;4878500;29;20949;-70
2023/03/25 17:00:55;;;;;;;0.68;0.68;;;8.10;99.90;;;;;;4875529;29;20551;-67
2023/03/25 17:03:39;;;;;;;0.32;0.32;;;8.20;99.90;;;;;;4873143;29;20211;-69
2023/03/25 17:06:13;;;;;;;1.38;1.30;;;8.20;99.90;;;;;;4877302;29;20235;-68
2023/03/25 17:08:40;;;;;;;1.23;1.02;;;8.20;99.90;;;;;;4875669;29;20270;-68
2023/03/25 17:11:08;;;;;;;2.38;2.28;;;8.20;99.90;;;;;;4877237;29;20591;-68
2023/03/25 17:13:41;;;;;;;1.73;1.73;;;8.20;99.90;;;;;;4876070;29;20215;-68
2023/03/25 17:16:08;;;;;;;0.35;0.35;;;8.20;99.90;;;;;;4878493;29;20242;-66
2023/03/25 17:18:37;;;;;;;1.05;1.05;;;8.10;99.90;;;;;;4876917;29;20216;-67
2023/03/25 17:21:11;;;;;;;1.23;1.13;;;8.10;99.90;;;;;;4878539;29;20291;-68
2023/03/25 17:23:45;;;;;;;1.85;0.85;;;8.20;99.90;;;;;;4874150;29;20272;-68
2023/03/25 17:26:14;;;;;;;6.10;0.68;;;8.20;99.90;;;;;;4868848;29;20272;-68
2023/03/25 17:28:42;;;;;;;0.20;0.20;;;8.30;99.90;;;;;;4877396;29;20208;-69
2023/03/25 17:31:26;;;;;;;0.95;0.80;;;8.30;99.90;;;;;;4879123;29;20227;-69
2023/03/25 17:33:59;;;;;;;1.83;0.50;;;8.40;99.90;;;;;;4876341;29;20315;-69
2023/03/25 17:36:30;;;;;;;0.20;0.20;;;8.40;99.90;;;;;;4880814;29;20231;-67
2023/03/25 17:38:58;;;;;;;0.20;0.20;;;8.40;99.90;;;;;;4880100;29;20207;-66
2023/03/25 17:41:30;;;;;;;0.20;0.20;;;8.50;99.90;;;;;;4879830;29;20231;-68
2023/03/25 17:43:57;;;;;;;0.20;0.20;;;8.50;99.90;;;;;;4878416;29;20312;-66
2023/03/25 17:46:25;;;;;;;0.20;0.20;;;8.40;99.90;;;;;;4879009;29;20231;-67
2023/03/25 17:48:56;;;;;;;1.00;0.40;;;8.30;99.90;;;;;;4880108;29;20207;-67
2023/03/25 17:51:23;;;;;;;0.20;0.20;;;8.20;99.90;;;;;;4875827;29;20250;-67
2023/03/25 17:53:52;;;;;;;0.30;0.30;;;8.20;99.90;;;;;;4877659;29;20697;-67
2023/03/25 17:56:23;;;;;;;0.40;0.40;;;8.10;99.90;;;;;;4876778;29;20593;-67
2023/03/25 17:58:52;;;;;;;0.20;0.20;;;8.00;99.90;;;;;;4877512;29;20215;-68
2023/03/25 18:01:19;;;;;;;0.30;0.30;;;8.00;99.90;;;;;;4875842;29;20692;-68
2023/03/25 18:03:45;;;;;;;0.40;0.40;;;8.00;99.90;;;;;;4874284;29;20212;-68
2023/03/25 18:06:12;;;;;;;0.20;0.20;;;7.90;99.90;;;;;;4876119;29;20239;-68
2023/03/25 18:08:39;;;;;;;0.20;0.20;;;7.90;99.90;;;;;;4878660;29;20577;-68
2023/03/25 18:11:10;;;;;;;0.25;0.25;;;7.90;99.90;;;;;;4876451;29;20242;-68
2023/03/25 18:13:37;;;;;;;0.38;0.38;;;7.90;99.90;;;;;;4875500;29;20278;-68
2023/03/25 18:16:06;;;;;;;1.25;1.25;;;7.90;99.90;;;;;;4876127;29;20326;-68
2023/03/25 18:18:32;;;;;;;0.22;0.22;;;7.90;99.90;;;;;;4876112;29;20212;-69